createdAt,value
2016-05-08T00:00:37.822Z,20.72
2016-05-08T00:01:37.527Z,20.72
2016-05-08T00:02:37.655Z,20.79
2016-05-08T00:03:37.487Z,20.74
2016-05-08T00:04:37.521Z,20.72
2016-05-08T00:05:37.413Z,20.71
2016-05-08T00:06:37.745Z,20.71
2016-05-08T00:07:37.435Z,20.74
2016-05-08T00:08:37.671Z,20.72
2016-05-08T00:09:37.456Z,20.74
2016-05-08T00:10:37.521Z,20.74
2016-05-08T00:11:37.429Z,20.69
2016-05-08T00:12:37.276Z,20.65
2016-05-08T00:13:38.389Z,20.62
2016-05-08T00:14:37.281Z,20.66
2016-05-08T00:15:37.315Z,20.65
2016-05-08T00:16:37.256Z,20.53
2016-05-08T00:17:37.196Z,20.62
2016-05-08T00:18:37.214Z,20.56
2016-05-08T00:19:37.233Z,20.54
2016-05-08T00:20:37.172Z,20.53
2016-05-08T00:21:37.113Z,20.58
2016-05-08T00:22:37.289Z,20.56
2016-05-08T00:23:37.072Z,20.49
2016-05-08T00:24:37.347Z,20.43
2016-05-08T00:25:37.240Z,20.46
2016-05-08T00:26:36.868Z,20.38
2016-05-08T00:27:37.432Z,20.42
2016-05-08T00:28:37.265Z,20.41
2016-05-08T00:29:36.829Z,20.38
2016-05-08T00:30:37.254Z,20.43
2016-05-08T00:31:36.788Z,20.41
2016-05-08T00:32:36.931Z,20.33
2016-05-08T00:33:36.995Z,20.31
2016-05-08T00:34:37.076Z,20.27
2016-05-08T00:35:37.017Z,20.24
2016-05-08T00:36:36.864Z,20.25
2016-05-08T00:37:36.867Z,20.2
2016-05-08T00:38:37.306Z,20.23
2016-05-08T00:39:36.856Z,20.12
2016-05-08T00:40:36.827Z,20.18
2016-05-08T00:41:36.845Z,20.18
2016-05-08T00:42:37.083Z,20.12
2016-05-08T00:43:36.726Z,20.12
2016-05-08T00:44:36.682Z,20.05
2016-05-08T00:45:36.825Z,20.06
2016-05-08T00:46:39.891Z,20.03
2016-05-08T00:47:37.581Z,20.02
2016-05-08T00:48:36.630Z,19.9
2016-05-08T00:49:36.446Z,19.95
2016-05-08T00:50:36.573Z,19.88
2016-05-08T00:51:36.404Z,19.86
2016-05-08T00:52:36.562Z,19.83
2016-05-08T00:53:36.628Z,19.84
2016-05-08T00:54:36.162Z,19.75
2016-05-08T00:55:36.508Z,19.76
2016-05-08T00:56:36.526Z,19.79
2016-05-08T00:57:36.717Z,19.83
2016-05-08T00:58:37.359Z,19.72
2016-05-08T00:59:36.535Z,19.86
2016-05-08T01:00:36.632Z,19.69
2016-05-08T01:01:36.806Z,19.68
2016-05-08T01:02:36.542Z,19.69
2016-05-08T01:03:36.155Z,19.66
2016-05-08T01:04:36.314Z,19.6
2016-05-08T01:05:36.285Z,19.61
2016-05-08T01:06:36.382Z,19.66
2016-05-08T01:07:36.415Z,19.65
2016-05-08T01:08:36.433Z,19.61
2016-05-08T01:09:36.108Z,19.58
2016-05-08T01:10:36.111Z,19.53
2016-05-08T01:11:36.333Z,19.5
2016-05-08T01:12:36.367Z,19.57
2016-05-08T01:13:36.463Z,19.4
2016-05-08T01:14:36.200Z,19.5
2016-05-08T01:15:36.781Z,19.53
2016-05-08T01:16:36.237Z,19.46
2016-05-08T01:17:36.177Z,19.46
2016-05-08T01:18:36.289Z,19.35
2016-05-08T01:19:36.026Z,19.4
2016-05-08T01:20:36.091Z,19.36
2016-05-08T01:21:36.078Z,19.39
2016-05-08T01:22:36.097Z,19.39
2016-05-08T01:23:36.021Z,19.38
2016-05-08T01:24:35.993Z,19.36
2016-05-08T01:25:35.902Z,19.25
2016-05-08T01:26:36.358Z,19.32
2016-05-08T01:27:35.751Z,19.23
2016-05-08T01:28:35.958Z,19.23
2016-05-08T01:29:35.960Z,19.24
2016-05-08T01:30:36.228Z,19.24
2016-05-08T01:31:35.887Z,19.21
2016-05-08T01:32:35.703Z,19.18
2016-05-08T01:33:35.955Z,19.18
2016-05-08T01:34:36.333Z,19.2
2016-05-08T01:35:35.570Z,19.18
2016-05-08T01:36:35.573Z,19.13
2016-05-08T01:37:35.746Z,19.17
2016-05-08T01:38:35.719Z,19.11
2016-05-08T01:39:35.565Z,19.14
2016-05-08T01:40:35.771Z,19.01
2016-05-08T01:41:35.617Z,18.99
2016-05-08T01:42:35.432Z,18.97
2016-05-08T01:43:35.451Z,19.02
2016-05-08T01:44:35.563Z,19.01
2016-05-08T01:45:35.675Z,18.87
2016-05-08T01:46:35.615Z,18.98
2016-05-08T01:47:35.634Z,18.87
2016-05-08T01:48:35.542Z,18.87
2016-05-08T01:49:35.467Z,18.92
2016-05-08T01:50:35.501Z,18.94
2016-05-08T01:51:35.644Z,18.86
2016-05-08T01:52:35.412Z,18.92
2016-05-08T01:53:35.525Z,18.83
2016-05-08T01:54:35.418Z,18.87
2016-05-08T01:55:35.342Z,18.86
2016-05-08T01:56:35.314Z,18.82
2016-05-08T01:57:35.988Z,18.76
2016-05-08T01:58:35.350Z,18.76
2016-05-08T01:59:35.416Z,18.76
2016-05-08T02:00:35.544Z,18.67
2016-05-08T02:01:35.297Z,18.67
2016-05-08T02:02:35.330Z,18.67
2016-05-08T02:03:35.066Z,18.7
2016-05-08T02:04:35.148Z,18.59
2016-05-08T02:05:34.963Z,18.58
2016-05-08T02:06:35.154Z,18.59
2016-05-08T02:07:35.141Z,18.54
2016-05-08T02:08:35.143Z,18.5
2016-05-08T02:09:35.098Z,18.54
2016-05-08T02:10:35.118Z,18.42
2016-05-08T02:11:35.058Z,18.46
2016-05-08T02:12:36.107Z,18.4
2016-05-08T02:13:34.876Z,18.46
2016-05-08T02:14:34.987Z,18.39
2016-05-08T02:15:34.943Z,18.36
2016-05-08T02:16:34.992Z,18.34
2016-05-08T02:17:35.012Z,18.34
2016-05-08T02:18:34.699Z,18.28
2016-05-08T02:19:34.686Z,18.31
2016-05-08T02:20:34.657Z,18.31
2016-05-08T02:21:34.925Z,18.28
2016-05-08T02:22:34.865Z,18.18
2016-05-08T02:23:34.822Z,18.24
2016-05-08T02:24:34.684Z,18.25
2016-05-08T02:25:34.748Z,18.27
2016-05-08T02:26:34.689Z,18.24
2016-05-08T02:27:34.800Z,18.21
2016-05-08T02:28:34.803Z,18.15
2016-05-08T02:29:34.853Z,18.19
2016-05-08T02:30:34.622Z,18.18
2016-05-08T02:31:34.796Z,18.19
2016-05-08T02:32:34.611Z,18.24
2016-05-08T02:33:34.552Z,18.25
2016-05-08T02:34:34.522Z,18.27
2016-05-08T02:35:34.541Z,18.24
2016-05-08T02:36:34.544Z,18.22
2016-05-08T02:37:34.530Z,18.25
2016-05-08T02:38:34.487Z,18.15
2016-05-08T02:39:34.630Z,18.17
2016-05-08T02:40:34.429Z,18.1
2016-05-08T02:41:34.416Z,18.09
2016-05-08T02:42:34.656Z,18.09
2016-05-08T02:43:34.470Z,18.1
2016-05-08T02:44:34.880Z,18.12
2016-05-08T02:45:34.743Z,18.09
2016-05-08T02:46:34.762Z,18.07
2016-05-08T02:47:34.542Z,18.03
2016-05-08T02:48:35.157Z,18.12
2016-05-08T02:49:34.566Z,18.04
2016-05-08T02:50:34.633Z,18.06
2016-05-08T02:51:34.434Z,18.09
2016-05-08T02:52:34.368Z,18.07
2016-05-08T02:53:34.471Z,18.06
2016-05-08T02:54:34.668Z,18.03
2016-05-08T02:55:34.520Z,18.07
2016-05-08T02:56:34.434Z,18.06
2016-05-08T02:57:34.785Z,18.06
2016-05-08T02:58:34.431Z,17.95
2016-05-08T02:59:34.576Z,18.09
2016-05-08T03:00:34.519Z,18.09
2016-05-08T03:01:34.383Z,18.04
2016-05-08T03:02:34.450Z,18.07
2016-05-08T03:03:34.547Z,18.1
2016-05-08T03:04:34.456Z,18.04
2016-05-08T03:05:34.319Z,18.1
2016-05-08T03:06:34.276Z,18.09
2016-05-08T03:07:34.342Z,18.13
2016-05-08T03:08:34.251Z,18.13
2016-05-08T03:09:34.426Z,18.09
2016-05-08T03:10:34.304Z,18.13
2016-05-08T03:11:34.354Z,18.09
2016-05-08T03:12:34.107Z,18.22
2016-05-08T03:13:34.157Z,18.22
2016-05-08T03:14:34.112Z,18.21
2016-05-08T03:15:33.834Z,18.18
2016-05-08T03:16:34.164Z,18.13
2016-05-08T03:17:34.027Z,18.27
2016-05-08T03:18:34.670Z,18.22
2016-05-08T03:19:34.063Z,18.19
2016-05-08T03:20:34.018Z,18.18
2016-05-08T03:21:35.054Z,18.22
2016-05-08T03:22:34.337Z,18.21
2016-05-08T03:23:34.027Z,18.24
2016-05-08T03:24:33.920Z,18.18
2016-05-08T03:25:33.767Z,18.21
2016-05-08T03:26:33.909Z,18.19
2016-05-08T03:27:34.476Z,18.17
2016-05-08T03:28:33.681Z,18.18
2016-05-08T03:29:33.684Z,18.19
2016-05-08T03:30:33.858Z,18.18
2016-05-08T03:31:33.815Z,18.21
2016-05-08T03:32:33.816Z,18.1
2016-05-08T03:33:33.742Z,18.18
2016-05-08T03:34:33.744Z,18.09
2016-05-08T03:35:33.715Z,18.12
2016-05-08T03:36:33.672Z,18.12
2016-05-08T03:37:33.674Z,18.07
2016-05-08T03:38:33.646Z,18.09
2016-05-08T03:39:33.648Z,18.03
2016-05-08T03:40:33.604Z,18.02
2016-05-08T03:41:33.591Z,18.09
2016-05-08T03:42:33.671Z,18.09
2016-05-08T03:43:33.613Z,17.97
2016-05-08T03:44:33.599Z,17.92
2016-05-08T03:45:33.368Z,17.88
2016-05-08T03:46:33.463Z,17.88
2016-05-08T03:47:33.466Z,17.94
2016-05-08T03:48:33.313Z,17.88
2016-05-08T03:49:33.457Z,17.89
2016-05-08T03:50:33.615Z,17.82
2016-05-08T03:51:33.399Z,17.87
2016-05-08T03:52:34.026Z,17.78
2016-05-08T03:53:33.326Z,17.81
2016-05-08T03:54:33.329Z,17.84
2016-05-08T03:55:33.332Z,17.87
2016-05-08T03:56:33.381Z,17.84
2016-05-08T03:57:33.337Z,17.87
2016-05-08T03:58:33.059Z,17.85
2016-05-08T03:59:33.389Z,17.76
2016-05-08T04:00:33.251Z,17.87
2016-05-08T04:01:33.239Z,17.85
2016-05-08T04:02:33.336Z,17.85
2016-05-08T04:03:33.494Z,17.87
2016-05-08T04:04:33.169Z,17.81
2016-05-08T04:05:33.093Z,17.84
2016-05-08T04:06:33.080Z,17.78
2016-05-08T04:07:32.942Z,17.79
2016-05-08T04:08:32.883Z,17.82
2016-05-08T04:09:33.010Z,17.82
2016-05-08T04:10:32.778Z,17.76
2016-05-08T04:11:32.688Z,17.82
2016-05-08T04:12:33.050Z,17.87
2016-05-08T04:13:32.927Z,17.73
2016-05-08T04:14:32.993Z,17.81
2016-05-08T04:15:32.948Z,17.74
2016-05-08T04:16:32.888Z,17.76
2016-05-08T04:17:33.016Z,17.74
2016-05-08T04:18:33.035Z,17.7
2016-05-08T04:19:40.337Z,17.67
2016-05-08T04:20:32.790Z,17.69
2016-05-08T04:21:32.762Z,17.78
2016-05-08T04:22:32.640Z,17.79
2016-05-08T04:23:32.751Z,17.69
2016-05-08T04:24:32.831Z,17.74
2016-05-08T04:25:32.772Z,17.69
2016-05-08T04:26:32.681Z,17.66
2016-05-08T04:27:32.684Z,17.69
2016-05-08T04:28:32.734Z,17.63
2016-05-08T04:29:32.626Z,17.67
2016-05-08T04:30:32.613Z,17.69
2016-05-08T04:31:32.991Z,17.66
2016-05-08T04:32:33.120Z,17.69
2016-05-08T04:33:32.559Z,17.66
2016-05-08T04:34:32.530Z,17.57
2016-05-08T04:35:32.627Z,17.63
2016-05-08T04:36:32.613Z,17.67
2016-05-08T04:37:32.539Z,17.64
2016-05-08T04:38:32.525Z,17.64
2016-05-08T04:39:32.638Z,17.66
2016-05-08T04:40:32.499Z,17.67
2016-05-08T04:41:32.362Z,17.73
2016-05-08T04:42:32.193Z,17.63
2016-05-08T04:43:32.195Z,17.69
2016-05-08T04:44:32.354Z,17.67
2016-05-08T04:45:32.264Z,17.67
2016-05-08T04:46:32.468Z,17.7
2016-05-08T04:47:32.316Z,17.69
2016-05-08T04:48:32.677Z,17.67
2016-05-08T04:49:32.320Z,17.66
2016-05-08T04:50:32.307Z,17.69
2016-05-08T04:51:32.139Z,17.66
2016-05-08T04:52:32.204Z,17.69
2016-05-08T04:53:32.191Z,17.69
2016-05-08T04:54:32.131Z,17.69
2016-05-08T04:55:32.071Z,17.67
2016-05-08T04:56:32.183Z,17.69
2016-05-08T04:57:32.171Z,17.69
2016-05-08T04:58:32.064Z,17.76
2016-05-08T04:59:32.269Z,17.73
2016-05-08T05:00:32.241Z,17.79
2016-05-08T05:01:31.806Z,17.76
2016-05-08T05:02:32.028Z,17.71
2016-05-08T05:03:31.984Z,17.71
2016-05-08T05:04:31.736Z,17.74
2016-05-08T05:05:31.864Z,17.76
2016-05-08T05:06:31.866Z,17.76
2016-05-08T05:07:31.885Z,17.81
2016-05-08T05:08:31.856Z,17.78
2016-05-08T05:09:31.891Z,17.79
2016-05-08T05:10:32.018Z,17.78
2016-05-08T05:11:31.833Z,17.74
2016-05-08T05:12:31.742Z,17.73
2016-05-08T05:13:31.697Z,17.79
2016-05-08T05:14:31.591Z,17.81
2016-05-08T05:15:31.672Z,17.84
2016-05-08T05:16:31.627Z,17.87
2016-05-08T05:17:31.458Z,17.89
2016-05-08T05:18:31.618Z,17.91
2016-05-08T05:19:31.620Z,17.82
2016-05-08T05:20:31.623Z,17.87
2016-05-08T05:21:31.563Z,17.85
2016-05-08T05:22:31.769Z,17.94
2016-05-08T05:23:31.568Z,17.88
2016-05-08T05:24:31.571Z,17.95
2016-05-08T05:25:31.512Z,17.89
2016-05-08T05:26:31.937Z,18.04
2016-05-08T05:27:31.923Z,18.09
2016-05-08T05:28:31.410Z,18.02
2016-05-08T05:29:31.662Z,18.02
2016-05-08T05:30:31.462Z,18.07
2016-05-08T05:31:31.731Z,18
2016-05-08T05:32:31.593Z,18.09
2016-05-08T05:33:31.361Z,18.12
2016-05-08T05:34:31.317Z,18.1
2016-05-08T05:35:31.523Z,18.07
2016-05-08T05:36:31.635Z,18.1
2016-05-08T05:37:31.262Z,18.24
2016-05-08T05:38:34.561Z,18.22
2016-05-08T05:39:31.236Z,18.19
2016-05-08T05:40:31.161Z,18.13
2016-05-08T05:41:31.195Z,18.25
2016-05-08T05:42:31.339Z,18.27
2016-05-08T05:43:30.919Z,18.25
2016-05-08T05:44:30.952Z,18.34
2016-05-08T05:45:31.158Z,18.28
2016-05-08T05:46:31.053Z,18.36
2016-05-08T05:47:31.039Z,18.42
2016-05-08T05:48:31.058Z,18.37
2016-05-08T05:49:31.029Z,18.4
2016-05-08T05:50:31.047Z,18.44
2016-05-08T05:51:30.659Z,18.44
2016-05-08T05:52:30.663Z,18.52
2016-05-08T05:53:30.759Z,18.57
2016-05-08T05:54:31.433Z,18.62
2016-05-08T05:55:30.904Z,18.55
2016-05-08T05:56:30.673Z,18.59
2016-05-08T05:57:30.690Z,18.68
2016-05-08T05:58:30.897Z,18.68
2016-05-08T05:59:31.056Z,18.7
2016-05-08T06:00:30.903Z,18.7
2016-05-08T06:01:30.748Z,18.72
2016-05-08T06:02:30.626Z,18.8
2016-05-08T06:03:30.754Z,18.86
2016-05-08T06:04:30.539Z,18.86
2016-05-08T06:05:30.729Z,18.86
2016-05-08T06:06:30.872Z,18.9
2016-05-08T06:07:30.764Z,18.95
2016-05-08T06:08:30.611Z,18.9
2016-05-08T06:09:30.645Z,18.91
2016-05-08T06:10:30.882Z,18.99
2016-05-08T06:11:30.636Z,18.95
2016-05-08T06:12:30.544Z,19.01
2016-05-08T06:13:30.391Z,19.02
2016-05-08T06:14:30.706Z,19.08
2016-05-08T06:15:30.489Z,19.14
2016-05-08T06:16:30.477Z,19.23
2016-05-08T06:17:30.479Z,19.21
2016-05-08T06:18:30.388Z,19.29
2016-05-08T06:19:30.407Z,19.23
2016-05-08T06:20:30.425Z,19.23
2016-05-08T06:21:30.521Z,19.35
2016-05-08T06:22:30.430Z,19.39
2016-05-08T06:23:30.479Z,19.36
2016-05-08T06:24:30.170Z,19.39
2016-05-08T06:25:30.407Z,19.48
2016-05-08T06:26:30.456Z,19.48
2016-05-08T06:27:31.241Z,19.47
2016-05-08T06:28:30.196Z,19.51
2016-05-08T06:29:30.324Z,19.54
2016-05-08T06:30:30.311Z,19.5
2016-05-08T06:31:30.220Z,19.58
2016-05-08T06:32:30.395Z,19.58
2016-05-08T06:33:30.428Z,19.6
2016-05-08T06:34:30.384Z,19.6
2016-05-08T06:35:30.575Z,19.61
2016-05-08T06:36:30.062Z,19.65
2016-05-08T06:37:30.345Z,19.75
2016-05-08T06:38:30.176Z,19.8
2016-05-08T06:39:30.428Z,19.76
2016-05-08T06:40:30.088Z,19.79
2016-05-08T06:41:29.981Z,19.87
2016-05-08T06:42:29.875Z,19.87
2016-05-08T06:43:29.769Z,19.91
2016-05-08T06:44:29.896Z,19.91
2016-05-08T06:45:30.149Z,19.94
2016-05-08T06:46:29.870Z,19.98
2016-05-08T06:47:29.685Z,20.06
2016-05-08T06:48:29.828Z,20.06
2016-05-08T06:49:29.613Z,20.12
2016-05-08T06:50:29.833Z,20.1
2016-05-08T06:51:29.790Z,20.13
2016-05-08T06:52:29.761Z,20.24
2016-05-08T06:53:29.717Z,20.2
2016-05-08T06:54:43.488Z,20.31
2016-05-08T06:55:29.676Z,20.21
2016-05-08T06:56:29.818Z,20.31
2016-05-08T06:57:29.524Z,20.33
2016-05-08T06:58:29.698Z,20.41
2016-05-08T06:59:29.654Z,20.34
2016-05-08T07:00:29.782Z,20.42
2016-05-08T07:01:29.629Z,20.47
2016-05-08T07:02:29.570Z,20.54
2016-05-08T07:03:29.337Z,20.61
2016-05-08T07:04:29.637Z,20.54
2016-05-08T07:05:29.468Z,20.71
2016-05-08T07:06:29.455Z,20.68
2016-05-08T07:07:29.536Z,20.72
2016-05-08T07:08:29.460Z,20.77
2016-05-08T07:09:29.416Z,20.74
2016-05-08T07:10:29.419Z,20.81
2016-05-08T07:11:29.218Z,20.84
2016-05-08T07:12:29.392Z,20.79
2016-05-08T07:13:29.333Z,20.91
2016-05-08T07:14:29.336Z,20.83
2016-05-08T07:15:29.745Z,20.86
2016-05-08T07:16:29.685Z,20.95
2016-05-08T07:17:29.344Z,20.93
2016-05-08T07:18:29.127Z,20.91
2016-05-08T07:19:29.365Z,20.96
2016-05-08T07:20:29.164Z,20.99
2016-05-08T07:21:29.276Z,20.98
2016-05-08T07:22:29.186Z,20.98
2016-05-08T07:23:29.172Z,21.04
2016-05-08T07:24:29.019Z,21.06
2016-05-08T07:25:28.975Z,21.02
2016-05-08T07:26:29.134Z,21.11
2016-05-08T07:27:29.183Z,21.13
2016-05-08T07:28:29.077Z,21.06
2016-05-08T07:29:29.126Z,21.2
2016-05-08T07:30:28.847Z,21.23
2016-05-08T07:31:29.038Z,21.17
2016-05-08T07:32:29.025Z,21.29
2016-05-08T07:33:28.824Z,21.34
2016-05-08T07:34:29.234Z,21.29
2016-05-08T07:35:28.970Z,21.36
2016-05-08T07:36:29.004Z,21.32
2016-05-08T07:37:28.835Z,21.41
2016-05-08T07:38:28.854Z,21.42
2016-05-08T07:39:29.044Z,21.42
2016-05-08T07:40:28.827Z,21.54
2016-05-08T07:41:29.112Z,21.53
2016-05-08T07:42:29.411Z,21.63
2016-05-08T07:43:28.976Z,21.59
2016-05-08T07:44:28.838Z,21.67
2016-05-08T07:45:28.528Z,21.67
2016-05-08T07:46:28.703Z,21.72
2016-05-08T07:47:28.956Z,21.76
2016-05-08T07:48:28.786Z,21.74
2016-05-08T07:49:28.976Z,21.78
2016-05-08T07:50:28.698Z,21.82
2016-05-08T07:51:28.622Z,21.88
2016-05-08T07:52:28.813Z,21.98
2016-05-08T07:53:28.613Z,21.92
2016-05-08T07:54:28.646Z,21.94
2016-05-08T07:55:28.571Z,21.99
2016-05-08T07:56:28.558Z,22.01
2016-05-08T07:57:29.045Z,21.98
2016-05-08T07:58:28.673Z,22.02
2016-05-08T07:59:28.957Z,22.06
2016-05-08T08:00:28.443Z,22.09
2016-05-08T08:01:28.274Z,22.09
2016-05-08T08:02:28.621Z,22.2
2016-05-08T08:03:28.404Z,22.2
2016-05-08T08:04:28.579Z,22.19
2016-05-08T08:05:28.410Z,22.14
2016-05-08T08:06:28.335Z,22.29
2016-05-08T08:07:28.165Z,22.31
2016-05-08T08:08:28.325Z,22.37
2016-05-08T08:09:28.015Z,22.37
2016-05-08T08:10:28.345Z,22.31
2016-05-08T08:11:28.333Z,22.38
2016-05-08T08:12:28.461Z,22.37
2016-05-08T08:13:28.306Z,22.46
2016-05-08T08:14:28.294Z,22.5
2016-05-08T08:15:28.219Z,22.54
2016-05-08T08:16:28.237Z,22.47
2016-05-08T08:17:28.177Z,22.62
2016-05-08T08:18:28.305Z,22.56
2016-05-08T08:19:28.152Z,22.56
2016-05-08T08:20:28.154Z,22.54
2016-05-08T08:21:28.094Z,22.59
2016-05-08T08:22:27.738Z,22.68
2016-05-08T08:23:27.974Z,22.62
2016-05-08T08:24:28.211Z,22.75
2016-05-08T08:25:28.293Z,22.78
2016-05-08T08:26:28.170Z,22.74
2016-05-08T08:27:27.985Z,22.71
2016-05-08T08:28:27.785Z,22.74
2016-05-08T08:29:28.163Z,22.83
2016-05-08T08:30:28.040Z,22.84
2016-05-08T08:31:27.965Z,22.82
2016-05-08T08:32:28.062Z,22.83
2016-05-08T08:33:27.720Z,22.89
2016-05-08T08:34:27.801Z,22.97
2016-05-08T08:35:27.709Z,23.04
2016-05-08T08:36:28.400Z,23.07
2016-05-08T08:37:28.012Z,22.99
2016-05-08T08:38:27.906Z,23.12
2016-05-08T08:39:27.861Z,23.14
2016-05-08T08:40:28.426Z,23.12
2016-05-08T08:41:27.648Z,23.19
2016-05-08T08:42:28.104Z,23.11
2016-05-08T08:43:27.700Z,23.19
2016-05-08T08:44:30.889Z,23.17
2016-05-08T08:45:27.658Z,23.09
2016-05-08T08:46:27.724Z,23.09
2016-05-08T08:47:27.586Z,23.08
2016-05-08T08:48:27.775Z,23.17
2016-05-08T08:49:27.638Z,23.15
2016-05-08T08:50:27.563Z,23.19
2016-05-08T08:51:27.597Z,23.22
2016-05-08T08:52:27.536Z,23.09
2016-05-08T08:53:27.539Z,23.26
2016-05-08T08:54:27.510Z,23.29
2016-05-08T08:55:27.685Z,23.32
2016-05-08T08:56:27.579Z,23.31
2016-05-08T08:57:27.315Z,23.24
2016-05-08T08:58:28.335Z,23.29
2016-05-08T08:59:27.274Z,23.23
2016-05-08T09:00:27.246Z,23.23
2016-05-08T09:01:27.390Z,23.35
2016-05-08T09:02:27.235Z,23.35
2016-05-08T09:03:27.816Z,23.32
2016-05-08T09:04:27.318Z,23.35
2016-05-08T09:05:27.431Z,23.4
2016-05-08T09:06:27.559Z,23.46
2016-05-08T09:07:28.951Z,23.43
2016-05-08T09:08:27.221Z,23.45
2016-05-08T09:09:27.582Z,23.49
2016-05-08T09:10:27.584Z,23.5
2016-05-08T09:11:27.260Z,23.55
2016-05-08T09:12:27.715Z,23.55
2016-05-08T09:13:27.312Z,23.58
2016-05-08T09:14:27.002Z,23.55
2016-05-08T09:15:27.005Z,23.57
2016-05-08T09:16:27.148Z,23.57
2016-05-08T09:17:27.338Z,23.53
2016-05-08T09:18:27.185Z,23.67
2016-05-08T09:19:27.062Z,23.61
2016-05-08T09:20:27.362Z,23.62
2016-05-08T09:21:27.444Z,23.52
2016-05-08T09:22:27.071Z,23.64
2016-05-08T09:23:27.214Z,23.55
2016-05-08T09:24:26.841Z,23.57
2016-05-08T09:25:27.157Z,23.61
2016-05-08T09:26:27.082Z,23.53
2016-05-08T09:27:27.005Z,23.53
2016-05-08T09:28:27.024Z,23.49
2016-05-08T09:29:26.933Z,23.53
2016-05-08T09:30:26.905Z,23.55
2016-05-08T09:31:26.923Z,23.52
2016-05-08T09:32:26.848Z,23.58
2016-05-08T09:33:27.084Z,23.72
2016-05-08T09:34:26.775Z,23.77
2016-05-08T09:35:26.809Z,23.71
2016-05-08T09:36:26.811Z,23.83
2016-05-08T09:37:26.814Z,23.83
2016-05-08T09:38:32.442Z,23.87
2016-05-08T09:39:26.851Z,23.83
2016-05-08T09:40:26.728Z,23.89
2016-05-08T09:41:26.747Z,23.9
2016-05-08T09:42:26.500Z,24.04
2016-05-08T09:43:26.517Z,24.05
2016-05-08T09:44:26.723Z,24.14
2016-05-08T09:45:26.694Z,24.14
2016-05-08T09:46:30.541Z,24.17
2016-05-08T09:47:26.467Z,24.23
2016-05-08T09:48:26.516Z,24.29
2016-05-08T09:49:26.565Z,24.17
2016-05-08T09:50:26.567Z,24.24
2016-05-08T09:51:26.336Z,24.27
2016-05-08T09:52:26.464Z,24.19
2016-05-08T09:53:26.638Z,24.26
2016-05-08T09:54:26.625Z,24.26
2016-05-08T09:55:26.659Z,24.2
2016-05-08T09:56:35.491Z,24.31
2016-05-08T09:57:42.305Z,24.32
2016-05-08T09:58:27.761Z,24.39
2016-05-08T09:59:26.436Z,24.35
2016-05-08T10:00:26.469Z,24.32
2016-05-08T10:01:26.332Z,24.39
2016-05-08T10:02:26.396Z,24.45
2016-05-08T10:03:26.337Z,24.42
2016-05-08T10:04:26.324Z,24.44
2016-05-08T10:05:26.280Z,24.49
2016-05-08T10:06:26.501Z,24.53
2016-05-08T10:07:26.473Z,24.49
2016-05-08T10:08:26.085Z,24.53
2016-05-08T10:09:26.056Z,24.53
2016-05-08T10:10:26.371Z,24.56
2016-05-08T10:11:26.295Z,24.57
2016-05-08T10:12:26.361Z,24.59
2016-05-08T10:13:27.412Z,24.56
2016-05-08T10:14:26.131Z,24.57
2016-05-08T10:15:26.151Z,24.54
2016-05-08T10:16:26.044Z,24.59
2016-05-08T10:17:26.469Z,24.57
2016-05-08T10:18:26.206Z,24.56
2016-05-08T10:19:26.083Z,24.71
2016-05-08T10:20:26.102Z,24.68
2016-05-08T10:21:25.995Z,24.68
2016-05-08T10:22:26.091Z,24.68
2016-05-08T10:23:26.339Z,24.69
2016-05-08T10:24:26.264Z,24.71
2016-05-08T10:25:25.954Z,24.69
2016-05-08T10:26:26.003Z,24.71
2016-05-08T10:27:25.959Z,24.64
2016-05-08T10:28:27.555Z,24.68
2016-05-08T10:29:26.074Z,24.71
2016-05-08T10:30:25.952Z,24.75
2016-05-08T10:31:26.002Z,24.68
2016-05-08T10:32:25.879Z,24.71
2016-05-08T10:33:25.710Z,24.68
2016-05-08T10:34:38.135Z,24.73
2016-05-08T10:35:25.934Z,24.69
2016-05-08T10:36:25.562Z,24.61
2016-05-08T10:37:25.751Z,24.69
2016-05-08T10:38:27.848Z,24.82
2016-05-08T10:39:25.695Z,24.82
2016-05-08T10:40:25.697Z,24.77
2016-05-08T10:41:25.715Z,24.82
2016-05-08T10:42:25.640Z,24.87
2016-05-08T10:43:25.627Z,24.75
2016-05-08T10:44:25.598Z,24.8
2016-05-08T10:45:25.664Z,24.85
2016-05-08T10:46:25.542Z,24.83
2016-05-08T10:47:25.482Z,24.85
2016-05-08T10:48:25.578Z,25
2016-05-08T10:49:25.409Z,24.9
2016-05-08T10:50:25.693Z,24.92
2016-05-08T10:51:25.556Z,25.01
2016-05-08T10:52:25.448Z,24.94
2016-05-08T10:53:25.342Z,25.01
2016-05-08T10:54:25.500Z,25.02
2016-05-08T10:55:27.488Z,25.15
2016-05-08T10:56:27.725Z,25.07
2016-05-08T10:57:26.259Z,25.12
2016-05-08T10:58:27.871Z,25.09
2016-05-08T10:59:26.608Z,25.17
2016-05-08T11:00:26.423Z,25.1
2016-05-08T11:01:39.066Z,25.07
2016-05-08T11:02:25.944Z,25.1
2016-05-08T11:03:25.415Z,25.05
2016-05-08T11:04:25.324Z,25.1
2016-05-08T11:05:25.154Z,25.06
2016-05-08T11:06:25.079Z,25.01
2016-05-08T11:07:25.239Z,24.95
2016-05-08T11:08:25.226Z,24.95
2016-05-08T11:09:25.228Z,25.05
2016-05-08T11:10:25.168Z,25.1
2016-05-08T11:11:25.312Z,25.06
2016-05-08T11:12:25.518Z,25.06
2016-05-08T11:13:26.770Z,25.1
2016-05-08T11:14:25.101Z,25.09
2016-05-08T11:15:25.135Z,25.1
2016-05-08T11:16:25.045Z,25.1
2016-05-08T11:17:25.251Z,25.13
2016-05-08T11:18:25.128Z,25.12
2016-05-08T11:19:25.006Z,25.12
2016-05-08T11:20:25.070Z,25.13
2016-05-08T11:21:24.854Z,25.2
2016-05-08T11:22:24.950Z,25.17
2016-05-08T11:23:25.109Z,25.15
2016-05-08T11:24:24.956Z,25.25
2016-05-08T11:25:24.912Z,25.28
2016-05-08T11:26:24.930Z,25.28
2016-05-08T11:27:24.933Z,25.22
2016-05-08T11:28:25.202Z,25.3
2016-05-08T11:29:24.875Z,25.34
2016-05-08T11:30:24.816Z,25.2
2016-05-08T11:31:24.849Z,25.25
2016-05-08T11:32:25.056Z,25.3
2016-05-08T11:33:24.856Z,25.31
2016-05-08T11:34:24.827Z,25.34
2016-05-08T11:35:24.877Z,25.27
2016-05-08T11:36:24.754Z,25.27
2016-05-08T11:37:24.976Z,25.32
2016-05-08T11:38:24.885Z,25.32
2016-05-08T11:39:24.699Z,25.3
2016-05-08T11:40:24.827Z,25.31
2016-05-08T11:41:24.705Z,25.27
2016-05-08T11:42:24.676Z,25.3
2016-05-08T11:43:25.148Z,25.44
2016-05-08T11:44:24.838Z,25.35
2016-05-08T11:45:24.997Z,25.46
2016-05-08T11:46:24.921Z,25.44
2016-05-08T11:47:24.970Z,25.38
2016-05-08T11:48:24.600Z,25.56
2016-05-08T11:49:24.692Z,25.67
2016-05-08T11:50:25.033Z,26.54
2016-05-08T11:51:24.703Z,26.37
2016-05-08T11:52:25.044Z,26.61
2016-05-08T11:53:24.708Z,26.59
2016-05-08T11:54:24.789Z,26.64
2016-05-08T11:55:24.775Z,26.47
2016-05-08T11:56:24.699Z,26.59
2016-05-08T11:57:25.091Z,26.35
2016-05-08T11:58:24.555Z,26.31
2016-05-08T11:59:24.657Z,26.47
2016-05-08T12:00:25.274Z,26.64
2016-05-08T12:01:24.829Z,26.74
2016-05-08T12:02:24.899Z,26.8
2016-05-08T12:03:24.609Z,27.67
2016-05-08T12:04:24.566Z,27.7
2016-05-08T12:05:24.946Z,27.71
2016-05-08T12:06:24.872Z,29.56
2016-05-08T12:07:24.564Z,29.62
2016-05-08T12:08:24.489Z,29.56
2016-05-08T12:09:24.649Z,29.1
2016-05-08T12:10:24.513Z,28.7
2016-05-08T12:11:24.562Z,28.46
2016-05-08T12:12:25.004Z,28.23
2016-05-08T12:13:24.443Z,28.01
2016-05-08T12:14:24.399Z,27.86
2016-05-08T12:15:24.418Z,27.69
2016-05-08T12:16:24.451Z,27.58
2016-05-08T12:17:24.501Z,27.54
2016-05-08T12:18:24.253Z,27.43
2016-05-08T12:19:24.617Z,27.39
2016-05-08T12:20:24.417Z,27.36
2016-05-08T12:21:24.372Z,27.32
2016-05-08T12:22:24.265Z,27.48
2016-05-08T12:24:24.536Z,27.98
2016-05-08T12:25:24.397Z,28.33
2016-05-08T12:26:24.400Z,29.59
2016-05-08T12:27:24.231Z,30.19
2016-05-08T12:28:26.078Z,30.64
2016-05-08T12:29:24.236Z,30.23
2016-05-08T12:30:24.224Z,30.86
2016-05-08T12:31:24.196Z,31.53
2016-05-08T12:32:24.010Z,32.15
2016-05-08T12:33:24.216Z,33.9
2016-05-08T12:34:24.124Z,35.11
2016-05-08T12:35:24.144Z,35.35
2016-05-08T12:36:24.069Z,34.86
2016-05-08T12:37:24.258Z,33.94
2016-05-08T12:38:24.324Z,34.53
2016-05-08T12:39:24.217Z,32.96
2016-05-08T12:40:24.141Z,32.02
2016-05-08T12:42:24.037Z,32.73
2016-05-08T12:43:25.431Z,32.57
2016-05-08T12:44:24.027Z,33.2
2016-05-08T12:45:23.967Z,32.17
2016-05-08T12:46:24.017Z,32.1
2016-05-08T12:47:23.926Z,31.15
2016-05-08T12:48:23.991Z,31.84
2016-05-08T12:49:23.931Z,31.48
2016-05-08T12:50:23.933Z,30.99
2016-05-08T12:51:23.952Z,30.53
2016-05-08T12:52:23.924Z,30.15
2016-05-08T12:53:23.755Z,29.89
2016-05-08T12:54:23.867Z,29.78
2016-05-08T12:55:23.900Z,29.62
2016-05-08T12:56:23.872Z,29.68